Time;durP1;ratioP1;P1;durP2;ratioP2;P2;SDS_P1;SDS_P2;PMS_P1;PMS_P2;Temp;Humidity;BMP_temperature;BMP_pressure;BME280_temperature;BME280_humidity;BME280_pressure;Samples;Min_cycle;Max_cycle;Signal;HPM_P1;HPM_P2
2021/03/20 00:02:13;;;;;;;11.48;6.75;;;;;;;0.60;65.88;99791.66;5072378;28;20067;-60
2021/03/20 00:04:40;;;;;;;9.80;5.78;;;;;;;0.66;65.88;99799.88;5072015;28;20040;-60
2021/03/20 00:07:07;;;;;;;9.73;6.32;;;;;;;0.64;65.75;99796.53;5070886;28;20056;-62
2021/03/20 00:09:33;;;;;;;9.73;6.63;;;;;;;0.69;65.82;99807.50;5072098;28;20131;-62
2021/03/20 00:12:01;;;;;;;12.60;6.43;;;;;;;0.66;65.58;99802.47;5072331;28;20041;-60
2021/03/20 00:14:27;;;;;;;10.02;5.72;;;;;;;0.67;65.29;99790.31;5072114;28;20044;-62
2021/03/20 00:16:55;;;;;;;8.65;6.40;;;;;;;0.66;65.41;99793.84;5072157;28;20040;-60
2021/03/20 00:19:22;;;;;;;11.60;6.95;;;;;;;0.68;65.40;99786.75;5071891;28;20410;-62
2021/03/20 00:21:49;;;;;;;11.45;7.28;;;;;;;0.70;65.56;99782.28;5070895;28;20047;-61
2021/03/20 00:24:16;;;;;;;12.40;6.60;;;;;;;0.67;65.34;99783.31;5080878;28;20036;-63
2021/03/20 00:26:43;;;;;;;11.57;7.00;;;;;;;0.68;65.46;99786.75;5090064;28;20487;-62
2021/03/20 00:29:10;;;;;;;10.20;6.72;;;;;;;0.64;65.44;99788.72;5084295;28;20468;-62
2021/03/20 00:31:37;;;;;;;11.30;6.28;;;;;;;0.62;65.20;99785.41;5072191;28;20053;-60
2021/03/20 00:34:05;;;;;;;14.73;6.50;;;;;;;0.40;65.42;99785.19;5071946;28;20117;-63
2021/03/20 00:36:31;;;;;;;8.75;6.07;;;;;;;0.18;65.83;99784.06;5071738;28;20044;-60
2021/03/20 00:39:04;;;;;;;8.85;6.35;;;;;;;0.11;66.13;99789.75;5071822;28;20037;-60
2021/03/20 00:41:31;;;;;;;10.05;6.72;;;;;;;0.01;66.90;99792.16;5070433;28;20052;-61
2021/03/20 00:43:58;;;;;;;8.40;6.28;;;;;;;0.08;66.90;99782.16;5070340;28;20044;-59
2021/03/20 00:46:24;;;;;;;9.82;6.40;;;;;;;0.18;67.12;99789.25;5070541;28;20048;-62
2021/03/20 00:48:52;;;;;;;8.25;5.93;;;;;;;0.23;66.88;99788.94;5070396;28;20529;-61
2021/03/20 00:51:19;;;;;;;11.20;6.20;;;;;;;0.20;66.91;99790.00;5071567;28;20499;-62
2021/03/20 00:53:46;;;;;;;9.15;6.05;;;;;;;0.22;66.97;99785.50;5071900;28;20071;-61
2021/03/20 00:56:13;;;;;;;11.80;6.18;;;;;;;0.24;66.78;99790.59;5071728;28;20119;-61
2021/03/20 00:58:42;;;;;;;9.73;6.63;;;;;;;0.29;66.91;99788.53;5070485;28;20049;-61
2021/03/20 01:01:11;;;;;;;10.13;6.80;;;;;;;0.36;66.80;99789.78;5074249;28;20597;-63
2021/03/20 01:03:38;;;;;;;10.05;6.35;;;;;;;0.32;66.41;99790.09;5075647;28;20466;-60
2021/03/20 01:06:05;;;;;;;12.32;7.13;;;;;;;0.16;66.39;99793.75;5074312;28;20502;-60
2021/03/20 01:08:33;;;;;;;9.90;6.43;;;;;;;-0.11;66.90;99793.78;5075514;28;20047;-62
2021/03/20 01:11:00;;;;;;;9.35;5.68;;;;;;;-0.15;67.39;99794.91;5075511;28;20491;-62
2021/03/20 01:13:27;;;;;;;11.93;5.90;;;;;;;-0.04;67.64;99792.44;5074061;28;20040;-62
2021/03/20 01:15:54;;;;;;;9.60;6.32;;;;;;;0.04;67.45;99799.75;5075449;28;20044;-61
2021/03/20 01:18:21;;;;;;;12.27;6.10;;;;;;;0.10;67.37;99799.31;5075303;28;20050;-62
2021/03/20 01:20:50;;;;;;;9.60;6.63;;;;;;;0.20;67.15;99800.41;5075459;28;20410;-61
2021/03/20 01:23:16;;;;;;;11.07;6.90;;;;;;;0.29;66.97;99808.53;5075445;28;20044;-60
2021/03/20 01:25:44;;;;;;;8.82;6.47;;;;;;;0.31;67.12;99804.88;5075253;28;20055;-63
2021/03/20 01:28:11;;;;;;;9.18;6.85;;;;;;;0.26;66.70;99801.75;5075489;28;20045;-62
2021/03/20 01:30:39;;;;;;;12.68;7.28;;;;;;;0.19;66.84;99813.47;5075220;28;20043;-62
2021/03/20 01:33:07;;;;;;;11.52;6.95;;;;;;;0.22;67.04;99802.88;5075168;28;20036;-61
2021/03/20 01:35:35;;;;;;;8.75;6.20;;;;;;;0.26;66.72;99816.53;5073576;28;20441;-62
2021/03/20 01:38:03;;;;;;;8.88;6.38;;;;;;;0.16;67.05;99816.28;5074923;28;20040;-61
2021/03/20 01:40:33;;;;;;;8.40;6.47;;;;;;;0.17;67.38;99815.38;5074906;28;20041;-62
2021/03/20 01:43:01;;;;;;;11.23;7.25;;;;;;;0.17;67.52;99810.16;5074916;28;20045;-62
2021/03/20 01:45:29;;;;;;;9.93;6.10;;;;;;;0.21;67.61;99804.66;5074739;28;20040;-61
2021/03/20 01:48:00;;;;;;;7.55;6.15;;;;;;;0.29;67.58;99811.13;5074797;28;20358;-61
2021/03/20 01:50:31;;;;;;;8.38;6.07;;;;;;;0.26;67.53;99806.13;5074825;28;20053;-61
2021/03/20 01:53:02;;;;;;;8.27;5.75;;;;;;;0.27;67.57;99808.59;5074765;28;20037;-63
2021/03/20 01:55:29;;;;;;;8.63;5.93;;;;;;;0.33;67.52;99803.00;5074723;28;20056;-62
2021/03/20 01:57:59;;;;;;;8.82;6.22;;;;;;;0.36;67.44;99805.38;5074601;28;20051;-62
2021/03/20 02:00:31;;;;;;;8.30;5.90;;;;;;;0.43;67.48;99803.22;5074761;28;20448;-62
2021/03/20 02:03:01;;;;;;;11.43;6.53;;;;;;;0.33;66.74;99810.81;5074684;28;20044;-62
2021/03/20 02:05:31;;;;;;;8.45;5.75;;;;;;;0.13;67.11;99806.09;5075017;28;20051;-63
2021/03/20 02:07:59;;;;;;;10.32;6.72;;;;;;;0.08;67.53;99805.56;5074530;28;20044;-62
2021/03/20 02:10:30;;;;;;;10.88;6.57;;;;;;;0.06;67.41;99812.63;5073910;28;20064;-61
2021/03/20 02:13:03;;;;;;;9.43;6.30;;;;;;;-0.04;67.83;99815.03;5075114;28;20036;-64
2021/03/20 02:15:36;;;;;;;9.57;6.70;;;;;;;-0.06;68.24;99809.06;5074928;28;20036;-62
2021/03/20 02:18:11;;;;;;;10.45;6.35;;;;;;;0.08;68.61;99805.56;5074566;28;20135;-63
2021/03/20 02:21:17;;;;;;;8.30;5.80;;;;;;;0.23;68.21;99796.75;5074632;28;20049;-60
2021/03/20 02:24:29;;;;;;;7.45;5.40;;;;;;;0.34;67.97;99796.88;5076035;28;20047;-61
2021/03/20 02:27:32;;;;;;;10.02;5.70;;;;;;;0.39;67.58;99799.97;5075793;28;20044;-60
2021/03/20 02:30:21;;;;;;;10.30;6.25;;;;;;;0.18;67.05;99801.44;5074697;28;20044;-61
2021/03/20 02:33:13;;;;;;;10.45;6.32;;;;;;;-0.08;67.80;99796.19;5074609;28;20115;-60
2021/03/20 02:35:48;;;;;;;11.57;6.05;;;;;;;-0.19;68.13;99800.41;5072746;28;20135;-61
2021/03/20 02:38:26;;;;;;;9.18;6.13;;;;;;;-0.19;68.12;99803.03;5075292;28;20041;-60
2021/03/20 02:41:01;;;;;;;8.93;6.03;;;;;;;-0.32;68.41;99798.63;5075003;28;20047;-62
2021/03/20 02:43:37;;;;;;;8.98;6.55;;;;;;;-0.32;68.86;99790.00;5072880;28;20061;-60
2021/03/20 02:46:09;;;;;;;9.63;6.18;;;;;;;-0.30;68.74;99788.09;5075116;28;20054;-62
2021/03/20 02:48:44;;;;;;;8.88;5.68;;;;;;;-0.27;69.10;99791.34;5081354;28;20554;-60
2021/03/20 02:51:17;;;;;;;9.88;6.28;;;;;;;-0.16;68.92;99803.66;5085829;28;20055;-60
2021/03/20 02:53:57;;;;;;;9.13;5.95;;;;;;;-0.04;69.12;99796.81;5084001;28;20037;-61
2021/03/20 02:56:27;;;;;;;9.13;6.43;;;;;;;0.02;68.77;99791.22;5074637;28;20041;-61
2021/03/20 02:59:00;;;;;;;9.00;5.78;;;;;;;0.05;68.54;99790.19;5074163;28;20051;-61
2021/03/20 03:01:30;;;;;;;8.40;6.10;;;;;;;-0.05;68.11;99795.97;5073659;28;20047;-61
2021/03/20 03:03:59;;;;;;;10.07;6.53;;;;;;;-0.19;68.08;99783.06;5072557;28;20523;-61
2021/03/20 03:06:30;;;;;;;8.48;6.10;;;;;;;-0.31;68.70;99796.84;5072343;28;20055;-63
2021/03/20 03:09:00;;;;;;;8.85;6.30;;;;;;;-0.37;68.44;99789.44;5073760;28;20063;-61
2021/03/20 03:11:34;;;;;;;8.00;6.18;;;;;;;-0.42;68.64;99791.50;5073468;28;20040;-62
2021/03/20 03:14:07;;;;;;;7.55;5.63;;;;;;;-0.60;69.09;99796.13;5073457;28;20425;-62
2021/03/20 03:16:39;;;;;;;11.18;6.28;;;;;;;-0.58;69.82;99783.84;5073451;28;20410;-62
2021/03/20 03:19:13;;;;;;;6.97;5.43;;;;;;;-0.44;69.55;99790.78;5073310;28;20471;-62
2021/03/20 03:21:46;;;;;;;7.40;5.63;;;;;;;-0.31;69.25;99791.66;5072005;28;20080;-62
2021/03/20 03:24:17;;;;;;;10.15;6.53;;;;;;;-0.18;69.03;99794.28;5073391;28;20052;-62
2021/03/20 03:26:51;;;;;;;9.32;5.97;;;;;;;-0.20;68.93;99799.59;5071763;28;20044;-62
2021/03/20 03:29:23;;;;;;;7.43;5.43;;;;;;;-0.25;68.83;99806.81;5072911;28;20055;-62
2021/03/20 03:31:57;;;;;;;9.13;6.60;;;;;;;-0.32;68.86;99818.56;5073395;28;20388;-61
2021/03/20 03:34:30;;;;;;;11.85;6.03;;;;;;;-0.30;68.85;99830.50;5072790;28;20040;-61
2021/03/20 03:37:07;;;;;;;9.95;6.28;;;;;;;-0.41;68.72;99829.53;5073048;28;20410;-63
2021/03/20 03:39:42;;;;;;;8.15;5.63;;;;;;;-0.60;68.87;99824.69;5071418;28;20123;-61
2021/03/20 03:42:11;;;;;;;8.63;5.88;;;;;;;-0.69;69.13;99826.09;5072937;28;20051;-62
2021/03/20 03:44:41;;;;;;;8.10;5.45;;;;;;;-0.82;69.51;99823.44;5072551;28;20041;-61
2021/03/20 03:47:08;;;;;;;8.43;5.78;;;;;;;-0.79;69.44;99830.19;5071336;28;20055;-61
2021/03/20 03:49:35;;;;;;;8.43;5.53;;;;;;;-0.83;70.00;99826.09;5072701;28;20052;-60
2021/03/20 03:52:03;;;;;;;6.82;4.95;;;;;;;-0.76;69.97;99836.03;5072547;28;20048;-61
2021/03/20 03:54:30;;;;;;;9.30;6.47;;;;;;;-0.71;69.81;99834.91;5072436;28;20055;-61
2021/03/20 03:57:26;;;;;;;9.90;5.88;;;;;;;-0.79;69.90;99835.38;5073907;28;20048;-61
2021/03/20 04:00:04;;;;;;;10.02;5.95;;;;;;;-0.84;69.81;99829.66;5091673;28;20072;-61
2021/03/20 04:02:52;;;;;;;6.72;5.50;;;;;;;-0.84;69.94;99840.84;5086042;28;20053;-60
2021/03/20 04:05:26;;;;;;;6.72;5.50;;;;;;;-0.78;70.30;99837.91;5072358;28;20107;-60
2021/03/20 04:07:57;;;;;;;;;;;;;;;-0.67;70.18;99831.19;5072820;28;20076;-61
2021/03/20 04:10:30;;;;;;;9.32;5.72;;;;;;;-0.58;69.96;99831.44;5072149;28;19921;-62
2021/03/20 04:13:04;;;;;;;7.97;5.53;;;;;;;-0.49;69.59;99835.25;5072241;28;20411;-61
2021/03/20 04:15:42;;;;;;;8.43;5.80;;;;;;;-0.58;69.29;99838.38;5072308;28;20044;-62
2021/03/20 04:18:17;;;;;;;8.50;5.28;;;;;;;-0.71;69.44;99846.13;5072005;28;20084;-62
2021/03/20 04:20:55;;;;;;;8.20;6.03;;;;;;;-0.91;69.30;99857.72;5071942;28;20098;-62
2021/03/20 04:23:29;;;;;;;7.68;5.38;;;;;;;-1.02;69.76;99855.81;5070697;28;20139;-62
2021/03/20 04:25:59;;;;;;;8.77;5.90;;;;;;;-1.09;70.07;99854.50;5071897;28;20048;-62
2021/03/20 04:28:37;;;;;;;9.23;5.13;;;;;;;-1.08;70.51;99850.16;5071929;28;20047;-63
2021/03/20 04:31:10;;;;;;;6.78;4.95;;;;;;;-0.91;70.56;99847.34;5071830;28;20048;-63
2021/03/20 04:33:44;;;;;;;6.25;5.30;;;;;;;-0.86;70.33;99842.72;5071594;28;20560;-61
2021/03/20 04:36:16;;;;;;;6.32;4.70;;;;;;;-0.80;70.47;99836.31;5071779;28;20049;-61
2021/03/20 04:38:45;;;;;;;11.30;5.88;;;;;;;-0.67;70.04;99839.81;5071833;28;20037;-62
2021/03/20 04:41:13;;;;;;;7.70;5.15;;;;;;;-0.68;69.42;99840.75;5070524;28;20055;-62
2021/03/20 04:43:41;;;;;;;5.65;5.00;;;;;;;-0.90;69.53;99837.78;5072094;28;20390;-61
2021/03/20 04:46:15;;;;;;;6.65;5.38;;;;;;;-0.89;70.07;99829.09;5071635;28;20049;-61
2021/03/20 04:48:43;;;;;;;;;;;;;;;-0.87;70.08;99820.28;5072416;28;20036;-61
2021/03/20 04:51:28;;;;;;;7.18;5.50;;;;;;;-0.90;69.79;99830.88;5071850;28;19927;-60
2021/03/20 04:54:06;;;;;;;8.02;5.50;;;;;;;-0.98;70.10;99840.03;5071801;28;20050;-61
2021/03/20 04:56:41;;;;;;;7.57;5.47;;;;;;;-0.94;69.96;99841.50;5070464;28;20059;-61
2021/03/20 04:59:17;;;;;;;9.82;5.60;;;;;;;-1.06;70.03;99843.13;5071684;28;20067;-61
2021/03/20 05:01:48;;;;;;;8.52;5.22;;;;;;;-1.06;70.12;99840.53;5071782;28;20119;-61
2021/03/20 05:04:21;;;;;;;7.18;5.45;;;;;;;-1.01;70.27;99839.31;5071879;28;20064;-62
2021/03/20 05:06:50;;;;;;;9.57;5.47;;;;;;;-0.96;70.38;99839.03;5070584;28;20052;-59
2021/03/20 05:09:21;;;;;;;8.35;5.60;;;;;;;-0.86;70.32;99844.47;5071343;28;20036;-62
2021/03/20 05:11:54;;;;;;;7.78;5.07;;;;;;;-0.88;69.89;99857.56;5071745;28;20495;-62
2021/03/20 05:14:26;;;;;;;7.13;5.43;;;;;;;-0.97;69.47;99859.88;5070293;28;20494;-60
2021/03/20 05:16:56;;;;;;;8.48;5.57;;;;;;;-1.12;69.65;99878.03;5071473;28;20494;-61
2021/03/20 05:19:24;;;;;;;8.60;5.85;;;;;;;-1.29;70.20;99870.44;5071321;28;20049;-61
2021/03/20 05:21:54;;;;;;;6.88;5.20;;;;;;;-1.24;70.47;99871.00;5071606;28;20044;-61
2021/03/20 05:24:24;;;;;;;9.55;6.10;;;;;;;-1.29;70.58;99870.44;5071254;28;20037;-61
2021/03/20 05:26:52;;;;;;;8.30;5.80;;;;;;;-1.27;70.48;99869.44;5071661;28;20041;-61
2021/03/20 05:29:19;;;;;;;8.40;5.15;;;;;;;-1.22;70.77;99870.91;5071165;28;20411;-61
2021/03/20 05:31:47;;;;;;;7.20;4.63;;;;;;;-1.19;70.77;99875.91;5071338;28;20041;-62
2021/03/20 05:34:21;;;;;;;5.20;4.63;;;;;;;-1.11;70.91;99879.69;5071152;28;20090;-60
2021/03/20 05:36:48;;;;;;;;;;;;;;;-1.09;70.43;99884.81;5070620;28;20106;-62
2021/03/20 05:39:16;;;;;;;6.32;4.38;;;;;;;-1.12;70.37;99890.19;5071020;28;19927;-61
2021/03/20 05:42:02;;;;;;;8.70;4.75;;;;;;;-1.16;70.24;99889.53;5071455;28;20037;-62
2021/03/20 05:44:51;;;;;;;6.72;3.90;;;;;;;-1.23;70.38;99889.97;5069786;28;20041;-60
2021/03/20 05:47:32;;;;;;;5.72;4.05;;;;;;;-1.16;70.59;99902.50;5074004;28;20036;-63
2021/03/20 05:50:10;;;;;;;5.68;4.20;;;;;;;-1.07;70.78;99894.16;5074972;28;20037;-61
2021/03/20 05:53:13;;;;;;;5.50;3.80;;;;;;;-0.94;70.58;99872.66;5075146;28;20036;-63
2021/03/20 05:55:46;;;;;;;7.00;4.50;;;;;;;-0.87;70.10;99882.56;5074809;28;20600;-60
2021/03/20 05:58:34;;;;;;;7.20;3.83;;;;;;;-0.92;69.84;99894.19;5074743;28;20438;-61
2021/03/20 06:01:06;;;;;;;5.43;3.97;;;;;;;-1.00;69.88;99899.84;5074901;28;20415;-62
2021/03/20 06:03:58;;;;;;;8.10;3.88;;;;;;;-1.00;69.93;99902.44;5074983;28;20430;-62
2021/03/20 06:06:39;;;;;;;6.43;4.00;;;;;;;-0.97;70.00;99898.81;5074861;28;20045;-61
2021/03/20 06:09:19;;;;;;;5.22;4.03;;;;;;;-1.02;70.00;99907.72;5073551;28;20499;-61
2021/03/20 06:12:03;;;;;;;6.03;4.20;;;;;;;-1.16;70.38;99914.66;5075014;28;20107;-61
2021/03/20 06:14:46;;;;;;;5.07;3.92;;;;;;;-1.21;70.46;99914.09;5074892;28;20036;-61
2021/03/20 06:17:20;;;;;;;5.25;4.22;;;;;;;-1.14;70.89;99913.66;5073478;28;20063;-63
2021/03/20 06:20:18;;;;;;;7.30;5.07;;;;;;;-0.85;71.01;99911.88;5074694;28;20124;-61
2021/03/20 06:23:06;;;;;;;8.38;4.95;;;;;;;-0.57;70.35;99902.41;5074798;28;20490;-63
2021/03/20 06:26:02;;;;;;;6.40;4.47;;;;;;;-0.37;69.63;99890.75;5074543;28;20550;-62
2021/03/20 06:28:35;;;;;;;6.43;4.65;;;;;;;-0.27;69.36;99895.28;5050407;28;20053;-60
2021/03/20 06:31:07;;;;;;;7.05;4.40;;;;;;;-0.19;69.24;99894.81;5074513;28;20403;-63
2021/03/20 06:33:43;;;;;;;7.63;5.00;;;;;;;-0.05;69.06;99901.72;5074459;28;20055;-61
2021/03/20 06:36:16;;;;;;;6.72;5.15;;;;;;;-0.13;68.31;99899.59;5074398;28;20044;-61
2021/03/20 06:38:46;;;;;;;8.93;5.15;;;;;;;-0.27;68.39;99907.44;5074785;28;20052;-60
2021/03/20 06:41:23;;;;;;;8.05;5.15;;;;;;;-0.27;68.49;99916.06;5074398;28;20036;-60
2021/03/20 06:43:55;;;;;;;6.32;4.95;;;;;;;-0.25;68.96;99915.97;5074221;28;20055;-61
2021/03/20 06:46:27;;;;;;;11.95;6.13;;;;;;;-0.05;69.01;99933.75;5073345;28;20040;-60
2021/03/20 06:48:55;;;;;;;7.70;4.60;;;;;;;0.06;68.80;99929.63;5074172;28;20036;-62
2021/03/20 06:51:22;;;;;;;8.18;5.60;;;;;;;0.26;68.35;99931.78;5074333;28;20048;-62
2021/03/20 06:53:55;;;;;;;8.18;5.85;;;;;;;0.43;68.28;99936.72;5074272;28;20407;-62
2021/03/20 06:56:23;;;;;;;10.68;6.07;;;;;;;0.61;68.19;99936.44;5073962;28;20045;-63
2021/03/20 06:58:49;;;;;;;6.15;4.85;;;;;;;0.57;67.52;99942.78;5073371;28;20051;-61
2021/03/20 07:01:39;;;;;;;9.15;6.10;;;;;;;0.49;67.63;99941.53;5074066;28;20494;-62
2021/03/20 07:04:29;;;;;;;9.63;5.30;;;;;;;0.51;67.83;99948.41;5073850;28;20049;-61
2021/03/20 07:07:18;;;;;;;6.30;4.20;;;;;;;0.62;67.63;99949.38;5073852;28;20499;-61
2021/03/20 07:09:50;;;;;;;7.45;5.40;;;;;;;0.71;67.51;99955.72;5071793;28;20056;-62
2021/03/20 07:12:18;;;;;;;8.32;5.65;;;;;;;0.79;67.33;99958.66;5073585;28;20044;-61
2021/03/20 07:14:47;;;;;;;9.88;5.90;;;;;;;0.83;67.08;99948.88;5073302;28;20044;-60
2021/03/20 07:17:34;;;;;;;8.55;6.38;;;;;;;0.92;66.98;99946.47;5073402;28;20410;-61
2021/03/20 07:20:09;;;;;;;8.00;5.20;;;;;;;1.01;66.78;99950.22;5073393;28;20041;-62
2021/03/20 07:22:40;;;;;;;8.75;6.20;;;;;;;1.17;66.56;99942.22;5073442;28;20051;-61
2021/03/20 07:25:23;;;;;;;9.45;6.05;;;;;;;1.29;66.07;99940.53;5072099;28;20487;-62
2021/03/20 07:27:53;;;;;;;7.82;5.97;;;;;;;1.37;66.03;99941.66;5073602;28;20123;-62
2021/03/20 07:30:36;;;;;;;9.60;6.22;;;;;;;1.47;65.71;99950.53;5086347;28;20036;-60
2021/03/20 07:33:25;;;;;;;10.18;6.68;;;;;;;1.53;65.53;99951.88;5084501;28;20045;-63
2021/03/20 07:35:54;;;;;;;8.93;6.65;;;;;;;1.56;65.10;99959.47;5072569;28;20048;-60
2021/03/20 07:38:25;;;;;;;10.18;7.32;;;;;;;1.52;64.80;99954.59;5073266;28;20052;-59
2021/03/20 07:41:05;;;;;;;9.25;6.65;;;;;;;1.51;64.64;99952.91;5073347;28;20044;-62
2021/03/20 07:43:32;;;;;;;7.13;5.25;;;;;;;1.45;64.18;99955.00;5073456;28;20051;-61
2021/03/20 07:46:12;;;;;;;6.35;5.18;;;;;;;1.52;63.50;99952.81;5073025;28;20189;-60
2021/03/20 07:48:42;;;;;;;6.57;5.00;;;;;;;1.58;63.45;99957.59;5073032;28;20115;-59
2021/03/20 07:51:11;;;;;;;8.30;6.13;;;;;;;1.70;63.47;99961.09;5072870;28;20043;-60
2021/03/20 07:53:42;;;;;;;6.78;5.40;;;;;;;1.79;63.11;99968.28;5073884;28;20033;-60
2021/03/20 07:56:31;;;;;;;8.13;5.55;;;;;;;1.76;62.42;99962.47;5074072;28;20046;-60
2021/03/20 07:59:05;;;;;;;8.57;4.55;;;;;;;1.63;62.06;99963.34;5074650;28;20516;-61
2021/03/20 08:01:35;;;;;;;6.40;4.40;;;;;;;1.59;62.37;99968.84;5073836;28;20332;-61
2021/03/20 08:04:07;;;;;;;4.65;4.20;;;;;;;1.67;62.19;99970.00;5073885;28;20539;-61
2021/03/20 08:06:46;;;;;;;5.88;4.53;;;;;;;1.73;62.08;99976.53;5073860;28;20087;-62
2021/03/20 08:09:27;;;;;;;7.40;5.30;;;;;;;2.00;61.58;99979.00;5073194;28;20045;-61
2021/03/20 08:12:12;;;;;;;6.07;4.18;;;;;;;2.04;61.05;99976.97;5073244;28;20355;-61
2021/03/20 08:15:03;;;;;;;5.20;3.80;;;;;;;1.97;60.28;99985.25;5073416;28;20044;-61
2021/03/20 08:17:30;;;;;;;6.13;4.25;;;;;;;2.03;59.89;99988.34;5073138;28;20051;-63
2021/03/20 08:19:58;;;;;;;6.90;4.15;;;;;;;2.03;59.91;99997.00;5073478;28;20044;-58
2021/03/20 08:22:50;;;;;;;6.65;4.20;;;;;;;2.17;60.05;99993.44;5073740;28;20087;-61
2021/03/20 08:25:59;;;;;;;6.70;4.75;;;;;;;2.30;59.90;99996.81;5074559;28;20037;-62
2021/03/20 08:28:45;;;;;;;7.88;4.57;;;;;;;2.29;59.48;99995.16;5038940;28;20060;-62
2021/03/20 08:31:29;;;;;;;5.90;4.50;;;;;;;2.18;58.91;100005.53;5074355;28;20075;-62
2021/03/20 08:34:16;;;;;;;6.97;4.68;;;;;;;2.19;59.80;100001.97;5075415;28;20044;-62
2021/03/20 08:37:08;;;;;;;7.28;4.72;;;;;;;2.20;59.32;100003.63;5075714;28;20044;-62
2021/03/20 08:39:49;;;;;;;7.22;4.43;;;;;;;2.20;58.83;100008.84;5074020;28;20413;-63
2021/03/20 08:42:30;;;;;;;6.13;4.53;;;;;;;2.15;58.83;100017.00;5075104;28;20036;-61
2021/03/20 08:45:08;;;;;;;5.85;4.75;;;;;;;2.23;59.02;100004.25;5075243;28;20043;-63
2021/03/20 08:48:01;;;;;;;4.93;3.55;;;;;;;2.29;58.77;100003.00;5073864;28;20052;-64
2021/03/20 08:50:39;;;;;;;6.38;3.28;;;;;;;2.52;57.62;100016.97;5074956;28;20071;-62
2021/03/20 08:53:20;;;;;;;4.95;4.03;;;;;;;2.61;57.19;100016.31;5075293;28;20067;-61
2021/03/20 08:56:02;;;;;;;4.60;3.42;;;;;;;2.78;56.29;100014.25;5075202;28;20066;-62
2021/03/20 08:58:49;;;;;;;7.18;3.88;;;;;;;2.86;56.01;100019.72;5074026;28;20055;-60
2021/03/20 09:01:25;;;;;;;5.90;4.07;;;;;;;2.88;55.34;100012.59;5073581;28;20064;-60
2021/03/20 09:03:55;;;;;;;5.97;3.20;;;;;;;2.84;54.72;100022.44;5073613;28;20086;-62
2021/03/20 09:06:30;;;;;;;6.72;3.50;;;;;;;2.91;53.89;100017.59;5073005;28;20502;-62
2021/03/20 09:09:06;;;;;;;3.80;3.50;;;;;;;2.87;53.57;100014.38;5072408;28;20051;-60
2021/03/20 09:11:42;;;;;;;4.15;3.05;;;;;;;2.90;52.89;100019.38;5072475;28;20040;-62
2021/03/20 09:14:15;;;;;;;4.47;3.10;;;;;;;2.88;52.19;100021.25;5072146;28;20145;-60
2021/03/20 09:16:47;;;;;;;3.35;3.05;;;;;;;2.81;51.91;100029.66;5072292;28;20056;-61
2021/03/20 09:19:20;;;;;;;4.72;3.00;;;;;;;2.71;51.84;100032.13;5072335;28;20601;-63
2021/03/20 09:21:48;;;;;;;6.88;3.60;;;;;;;2.74;51.81;100029.31;5075753;28;20044;-61
2021/03/20 09:24:20;;;;;;;7.43;3.42;;;;;;;2.79;51.43;100040.22;5076658;28;20063;-62
2021/03/20 09:26:49;;;;;;;6.78;3.30;;;;;;;2.88;51.50;100030.88;5075081;28;20475;-62
2021/03/20 09:29:20;;;;;;;3.80;3.20;;;;;;;2.92;50.76;100020.09;5077566;28;20058;-63
2021/03/20 09:32:10;;;;;;;6.25;2.90;;;;;;;3.02;51.01;100008.94;5080508;28;20051;-63
2021/03/20 09:34:44;;;;;;;5.40;3.50;;;;;;;3.21;51.08;100009.25;5080155;28;20166;-62
2021/03/20 09:37:55;;;;;;;3.50;3.20;;;;;;;3.33;49.43;100010.09;5075977;28;20048;-61
2021/03/20 09:40:49;;;;;;;4.20;3.35;;;;;;;3.34;49.40;100014.38;5075366;28;20113;-62
2021/03/20 09:43:19;;;;;;;6.72;3.17;;;;;;;3.44;49.15;100010.13;5070992;28;20418;-61
2021/03/20 09:46:25;;;;;;;4.80;3.75;;;;;;;3.64;48.58;100006.78;5075061;28;20494;-63
2021/03/20 09:48:53;;;;;;;3.50;3.20;;;;;;;3.86;48.36;100013.78;5075182;28;20481;-61
2021/03/20 09:51:57;;;;;;;4.05;3.40;;;;;;;4.14;46.99;100003.78;5075260;28;20044;-60
2021/03/20 09:54:45;;;;;;;4.25;3.28;;;;;;;4.40;47.57;100014.75;5074757;28;20047;-60
2021/03/20 09:57:52;;;;;;;5.50;3.25;;;;;;;4.43;45.66;100007.50;5075043;28;20044;-62
2021/03/20 10:01:10;;;;;;;6.53;3.65;;;;;;;4.41;45.92;100008.59;5075610;28;20051;-62
2021/03/20 10:03:48;;;;;;;5.15;3.30;;;;;;;4.41;45.91;100004.19;5032683;28;20049;-62
2021/03/20 10:06:22;;;;;;;3.67;3.25;;;;;;;4.51;45.97;99998.19;5015603;28;20392;-60
2021/03/20 10:09:04;;;;;;;4.25;2.90;;;;;;;4.46;46.01;99986.31;5056506;28;20071;-60
2021/03/20 10:11:34;;;;;;;4.07;2.70;;;;;;;4.42;45.56;99987.53;5074855;28;20044;-60
2021/03/20 10:14:22;;;;;;;5.28;3.45;;;;;;;4.24;45.96;99981.13;5073237;28;20049;-62
2021/03/20 10:17:04;;;;;;;4.38;3.10;;;;;;;4.31;45.48;99984.94;5074703;28;20044;-60
2021/03/20 10:19:34;;;;;;;3.15;2.80;;;;;;;4.30;45.17;99987.69;5074451;28;20055;-59
2021/03/20 10:22:04;;;;;;;4.05;3.28;;;;;;;4.19;46.19;99976.28;5074592;28;20048;-61
2021/03/20 10:24:31;;;;;;;3.22;2.85;;;;;;;4.41;45.67;99983.25;5074278;28;20044;-62
2021/03/20 10:27:01;;;;;;;6.72;3.28;;;;;;;4.36;45.37;99974.09;5074315;28;20123;-63
2021/03/20 10:29:33;;;;;;;6.63;5.15;;;;;;;4.48;45.46;99975.69;5074114;28;20391;-62
2021/03/20 10:32:14;;;;;;;5.72;3.33;;;;;;;4.52;44.57;99982.34;5073509;28;20051;-63
2021/03/20 10:34:49;;;;;;;3.72;2.60;;;;;;;4.51;44.39;99978.06;5074222;28;20040;-61
2021/03/20 10:37:17;;;;;;;2.88;2.55;;;;;;;4.39;43.81;99977.28;5074093;28;20044;-63
2021/03/20 10:39:46;;;;;;;2.75;2.40;;;;;;;4.39;43.40;99982.53;5072509;28;20517;-63
2021/03/20 10:42:18;;;;;;;3.35;2.70;;;;;;;4.41;43.43;99983.25;5074096;28;20044;-62
2021/03/20 10:44:52;;;;;;;3.95;2.65;;;;;;;4.31;43.10;99974.47;5073943;28;20040;-63
2021/03/20 10:47:28;;;;;;;4.40;2.50;;;;;;;3.93;43.71;99983.59;5074089;28;20044;-62
2021/03/20 10:49:59;;;;;;;5.43;2.65;;;;;;;4.09;44.22;99979.75;5073895;28;20094;-61
2021/03/20 10:52:31;;;;;;;5.75;2.97;;;;;;;4.29;43.72;99984.22;5072714;28;20424;-61
2021/03/20 10:55:02;;;;;;;5.07;2.60;;;;;;;4.38;43.20;99975.63;5073678;28;20043;-59
2021/03/20 10:57:32;;;;;;;4.95;2.65;;;;;;;4.41;43.47;99971.94;5072539;28;20414;-62
2021/03/20 10:59:59;;;;;;;4.53;2.70;;;;;;;4.44;41.89;99971.66;5073903;28;20036;-60
2021/03/20 11:02:34;;;;;;;3.70;2.92;;;;;;;4.42;42.15;99969.19;5073630;28;20636;-61
2021/03/20 11:05:25;;;;;;;2.83;2.40;;;;;;;4.11;41.67;99968.19;5072370;28;20502;-61
2021/03/20 11:07:54;;;;;;;2.70;2.40;;;;;;;4.27;42.52;99961.75;5090196;28;20050;-64
2021/03/20 11:10:27;;;;;;;3.53;2.58;;;;;;;4.42;42.84;99961.34;5094810;28;20068;-63
2021/03/20 11:12:56;;;;;;;3.90;2.88;;;;;;;4.67;42.30;99961.94;5081492;28;20071;-60
2021/03/20 11:15:28;;;;;;;3.00;2.05;;;;;;;4.72;42.00;99960.59;5073685;28;20502;-60
2021/03/20 11:17:58;;;;;;;4.82;2.67;;;;;;;4.81;42.21;99963.41;5073474;28;20040;-62
2021/03/20 11:20:32;;;;;;;3.88;2.50;;;;;;;4.87;40.44;99957.69;5073475;28;20048;-62
2021/03/20 11:23:00;;;;;;;3.85;2.35;;;;;;;4.82;41.17;99954.63;5071968;28;20423;-62
2021/03/20 11:25:32;;;;;;;5.00;2.33;;;;;;;4.96;40.08;99954.28;5072908;28;20037;-61
2021/03/20 11:28:01;;;;;;;3.53;1.92;;;;;;;4.90;40.34;99950.41;5073142;28;20410;-61
2021/03/20 11:30:37;;;;;;;3.53;2.35;;;;;;;5.00;40.20;99953.06;5071966;28;20124;-60
2021/03/20 11:33:05;;;;;;;3.67;2.38;;;;;;;5.08;39.83;99944.56;5073053;28;20037;-60
2021/03/20 11:35:34;;;;;;;2.90;2.30;;;;;;;5.10;39.08;99947.88;5072852;28;20041;-59
2021/03/20 11:38:02;;;;;;;3.10;2.15;;;;;;;5.08;39.53;99948.00;5071422;28;20143;-61
2021/03/20 11:40:32;;;;;;;3.58;2.33;;;;;;;5.09;39.15;99954.06;5072623;28;20115;-61
2021/03/20 11:43:03;;;;;;;4.82;2.22;;;;;;;5.08;39.68;99942.75;5072437;28;20052;-61
2021/03/20 11:45:34;;;;;;;4.22;2.72;;;;;;;4.83;39.56;99945.78;5071886;28;20037;-61
2021/03/20 11:48:13;;;;;;;4.30;2.47;;;;;;;4.65;39.51;99948.13;5072511;28;20051;-61
2021/03/20 11:50:41;;;;;;;2.95;2.20;;;;;;;4.74;39.73;99951.81;5072835;28;20036;-61
2021/03/20 11:53:23;;;;;;;2.92;2.10;;;;;;;4.89;38.84;99945.25;5071297;28;20063;-60
2021/03/20 11:55:52;;;;;;;2.53;2.03;;;;;;;4.72;39.13;99944.88;5072638;28;20079;-62
2021/03/20 11:58:28;;;;;;;4.30;2.03;;;;;;;4.77;39.53;99948.91;5072308;28;20056;-62
2021/03/20 12:00:57;;;;;;;4.93;2.80;;;;;;;4.93;39.97;99937.00;5072532;28;20047;-61
2021/03/20 12:03:32;;;;;;;2.47;2.25;;;;;;;5.11;39.31;99926.78;5072345;28;20515;-60
2021/03/20 12:06:22;;;;;;;2.80;2.45;;;;;;;5.21;39.04;99930.28;5072157;28;20044;-61
2021/03/20 12:08:51;;;;;;;4.28;2.20;;;;;;;5.32;39.14;99924.13;5072342;28;20052;-60
2021/03/20 12:11:20;;;;;;;3.85;2.08;;;;;;;5.56;38.73;99922.97;5072291;28;20040;-60
2021/03/20 12:13:50;;;;;;;3.20;2.50;;;;;;;5.59;38.45;99923.53;5072300;28;20394;-61